createdAt,value
2019-02-08T00:00:00.512Z,88.92
2019-02-08T00:03:06.609Z,89.03
2019-02-08T00:06:09.568Z,88.92
2019-02-08T00:09:14.453Z,88.81
2019-02-08T00:12:19.661Z,88.99
2019-02-08T00:15:22.133Z,89.30
2019-02-08T00:18:26.581Z,88.71
2019-02-08T00:21:29.183Z,88.70
2019-02-08T00:24:31.858Z,88.75
2019-02-08T00:27:34.543Z,88.57
2019-02-08T00:30:38.098Z,88.31
2019-02-08T00:33:40.806Z,88.91
2019-02-08T00:36:43.403Z,88.81
2019-02-08T00:39:46.080Z,88.32
2019-02-08T00:42:48.877Z,88.46
2019-02-08T00:45:51.924Z,88.15
2019-02-08T00:48:54.628Z,88.61
2019-02-08T00:51:57.456Z,88.81
2019-02-08T00:55:03.109Z,89.26
2019-02-08T00:58:05.953Z,88.39
2019-02-08T01:01:10.718Z,89.13
2019-02-08T01:04:13.236Z,88.96
2019-02-08T01:07:15.942Z,89.27
2019-02-08T01:10:21.807Z,89.19
2019-02-08T01:13:24.487Z,89.62
2019-02-08T01:16:27.051Z,90.31
2019-02-08T01:19:29.757Z,89.81
2019-02-08T01:22:32.708Z,89.82
2019-02-08T01:25:35.473Z,90.07
2019-02-08T01:28:38.263Z,90.00
2019-02-08T01:31:40.926Z,90.10
2019-02-08T01:34:43.577Z,90.44
2019-02-08T01:37:46.851Z,90.52
2019-02-08T01:40:49.496Z,90.74
2019-02-08T01:43:52.110Z,91.59
2019-02-08T01:46:56.557Z,91.35
2019-02-08T01:49:59.258Z,91.95
2019-02-08T01:53:02.012Z,91.43
2019-02-08T01:56:04.638Z,90.74
2019-02-08T01:59:07.216Z,90.58
2019-02-08T02:02:09.800Z,90.42
2019-02-08T02:05:14.785Z,90.00
2019-02-08T02:08:17.425Z,90.27
2019-02-08T02:11:20.044Z,90.36
2019-02-08T02:14:22.721Z,90.81
2019-02-08T02:17:25.402Z,90.55
2019-02-08T02:20:33.179Z,90.96
2019-02-08T02:23:36.101Z,90.91
2019-02-08T02:26:38.810Z,90.81
2019-02-08T02:29:41.436Z,90.40
2019-02-08T02:32:44.144Z,89.89
2019-02-08T02:35:46.916Z,90.36
2019-02-08T02:38:49.508Z,90.14
2019-02-08T02:41:52.248Z,90.16
2019-02-08T02:44:54.858Z,90.02
2019-02-08T02:47:57.521Z,89.62
2019-02-08T02:51:00.097Z,89.52
2019-02-08T02:54:04.910Z,89.04
2019-02-08T02:57:07.194Z,89.86
2019-02-08T03:00:13.898Z,90.33
2019-02-08T03:03:16.902Z,90.93
2019-02-08T03:06:19.532Z,91.19
2019-02-08T03:09:22.276Z,91.50
2019-02-08T03:12:24.841Z,90.90
2019-02-08T03:15:27.557Z,90.45
2019-02-08T03:18:30.164Z,90.01
2019-02-08T03:21:32.745Z,89.87
2019-02-08T03:24:35.468Z,89.80
2019-02-08T03:27:38.133Z,88.77
2019-02-08T03:31:00.301Z,89.03
2019-02-08T03:34:03.242Z,88.50
2019-02-08T03:37:05.916Z,87.73
2019-02-08T03:40:11.658Z,87.78
2019-02-08T03:43:14.577Z,87.83
2019-02-08T03:46:17.335Z,86.94
2019-02-08T03:49:20.005Z,87.50
2019-02-08T03:52:22.741Z,87.65
2019-02-08T03:55:25.591Z,87.74
2019-02-08T03:58:28.207Z,87.39
2019-02-08T04:01:30.908Z,87.71
2019-02-08T04:04:33.570Z,87.43
2019-02-08T04:07:36.181Z,88.06
2019-02-08T04:10:38.866Z,87.82
2019-02-08T04:13:41.647Z,87.78
2019-02-08T04:16:44.395Z,88.50
2019-02-08T04:19:47.155Z,88.69
2019-02-08T04:22:49.715Z,88.49
2019-02-08T04:25:52.461Z,88.84
2019-02-08T04:28:55.056Z,88.55
2019-02-08T04:31:57.723Z,88.60
2019-02-08T04:35:02.362Z,88.41
2019-02-08T04:38:04.931Z,88.15
2019-02-08T04:41:07.627Z,88.64
2019-02-08T04:44:10.340Z,89.15
2019-02-08T04:47:13.044Z,90.19
2019-02-08T04:50:18.056Z,90.27
2019-02-08T04:53:20.665Z,90.12
2019-02-08T04:56:23.231Z,90.44
2019-02-08T04:59:25.794Z,90.56
2019-02-08T05:02:28.551Z,90.96
2019-02-08T05:05:31.226Z,90.52
2019-02-08T05:08:33.878Z,90.90
2019-02-08T05:11:36.427Z,91.20
2019-02-08T05:14:41.170Z,91.33
2019-02-08T05:17:43.771Z,91.47
2019-02-08T05:20:46.433Z,91.71
2019-02-08T05:23:49.215Z,91.88
2019-02-08T05:26:51.915Z,92.22
2019-02-08T05:29:54.566Z,92.28
2019-02-08T05:32:57.331Z,92.09
2019-02-08T05:36:04.526Z,92.52
2019-02-08T05:39:09.415Z,93.30
2019-02-08T05:42:14.727Z,93.99
2019-02-08T05:45:17.588Z,93.98
2019-02-08T05:48:20.265Z,94.60
2019-02-08T05:51:22.842Z,94.89
2019-02-08T05:54:25.634Z,95.43
2019-02-08T05:57:29.103Z,95.28
2019-02-08T06:00:43.387Z,96.49
2019-02-08T06:03:45.953Z,97.21
2019-02-08T06:06:48.576Z,98.53
2019-02-08T06:09:51.373Z,99.03
2019-02-08T06:12:54.181Z,99.32
2019-02-08T06:15:56.865Z,99.32
2019-02-08T06:18:59.645Z,99.27
2019-02-08T06:22:02.202Z,98.90
2019-02-08T06:25:05.902Z,99.12
2019-02-08T06:28:08.504Z,98.49
2019-02-08T06:31:11.190Z,98.76
2019-02-08T06:34:13.788Z,98.33
2019-02-08T06:37:16.449Z,97.95
2019-02-08T06:40:21.051Z,97.84
2019-02-08T06:43:23.750Z,97.73
2019-02-08T06:46:26.386Z,97.65
2019-02-08T06:49:29.082Z,96.75
2019-02-08T06:52:31.773Z,96.60
2019-02-08T06:55:34.460Z,96.43
2019-02-08T06:58:41.583Z,96.12
2019-02-08T07:01:55.658Z,95.63
2019-02-08T07:05:30.008Z,95.64
2019-02-08T07:09:01.359Z,95.90
2019-02-08T07:12:36.789Z,96.16
2019-02-08T07:16:04.922Z,96.13
2019-02-08T07:19:30.005Z,96.19
2019-02-08T07:23:01.466Z,97.69
2019-02-08T07:26:21.742Z,97.98
2019-02-08T07:29:40.719Z,98.76
2019-02-08T07:33:00.254Z,98.43
2019-02-08T07:36:20.947Z,98.56
2019-02-08T07:39:45.326Z,99.44
2019-02-08T07:43:06.385Z,100.03
2019-02-08T07:46:28.628Z,99.71
2019-02-08T07:49:52.625Z,99.53
2019-02-08T07:53:33.076Z,98.39
2019-02-08T07:56:52.691Z,97.78
2019-02-08T08:00:06.033Z,97.73
2019-02-08T08:03:22.920Z,96.76
2019-02-08T08:06:54.023Z,95.83
2019-02-08T08:10:17.349Z,95.84
2019-02-08T08:13:47.969Z,94.56
2019-02-08T08:17:08.951Z,94.42
2019-02-08T08:20:34.964Z,93.67
2019-02-08T08:24:01.052Z,93.96
2019-02-08T08:27:26.232Z,93.98
2019-02-08T08:30:40.302Z,94.19
2019-02-08T08:33:57.199Z,94.07
2019-02-08T08:37:59.975Z,94.05
2019-02-08T08:41:42.391Z,94.93
2019-02-08T08:45:32.065Z,95.20
2019-02-08T08:49:04.721Z,95.34
2019-02-08T08:53:19.536Z,94.61
2019-02-08T08:57:25.081Z,94.28
2019-02-08T09:01:21.635Z,94.36
2019-02-08T09:04:55.108Z,93.61
2019-02-08T09:08:39.896Z,92.46
2019-02-08T09:12:45.795Z,92.48
2019-02-08T09:16:29.132Z,92.61
2019-02-08T09:20:10.901Z,92.16
2019-02-08T09:23:59.282Z,90.90
2019-02-08T09:27:40.856Z,89.43
2019-02-08T09:31:27.145Z,89.64
2019-02-08T09:34:49.869Z,88.54
2019-02-08T09:38:29.211Z,88.87
2019-02-08T09:42:08.404Z,88.52
2019-02-08T09:45:51.835Z,87.56
2019-02-08T09:49:21.629Z,87.65
2019-02-08T09:53:01.170Z,87.40
2019-02-08T09:56:36.701Z,86.97
2019-02-08T10:00:18.514Z,86.53
2019-02-08T10:04:12.190Z,86.31
2019-02-08T10:08:07.926Z,86.91
2019-02-08T10:11:37.295Z,85.98
2019-02-08T10:15:15.394Z,85.43
2019-02-08T10:19:21.545Z,84.95
2019-02-08T10:23:08.034Z,83.83
2019-02-08T10:26:57.754Z,83.94
2019-02-08T10:30:35.496Z,84.21
2019-02-08T10:34:25.400Z,83.70
2019-02-08T10:38:10.626Z,84.26
2019-02-08T10:41:49.906Z,84.80
2019-02-08T10:45:37.273Z,85.50
2019-02-08T10:49:27.591Z,85.56
2019-02-08T10:53:01.974Z,86.24
2019-02-08T10:56:42.459Z,87.26
2019-02-08T11:00:46.410Z,87.72
2019-02-08T11:04:39.683Z,87.52
2019-02-08T11:08:25.136Z,87.88
2019-02-08T11:12:08.371Z,87.18
2019-02-08T11:15:43.115Z,86.74
2019-02-08T11:19:16.831Z,86.55
2019-02-08T11:22:19.463Z,87.03
2019-02-08T11:25:22.068Z,84.64
2019-02-08T11:28:26.889Z,84.49
2019-02-08T11:31:29.498Z,84.92
2019-02-08T11:34:32.240Z,84.14
2019-02-08T11:37:34.929Z,83.75
2019-02-08T11:40:37.610Z,82.63
2019-02-08T11:43:40.238Z,83.10
2019-02-08T11:46:43.499Z,82.00
2019-02-08T11:49:46.046Z,81.58
2019-02-08T11:52:48.749Z,81.64
2019-02-08T11:55:51.301Z,81.22
2019-02-08T11:58:54.015Z,80.93
2019-02-08T12:01:56.621Z,80.34
2019-02-08T12:04:59.249Z,79.66
2019-02-08T12:08:02.016Z,80.51
2019-02-08T12:11:04.795Z,80.09
2019-02-08T12:14:07.685Z,79.83
2019-02-08T12:17:10.482Z,80.26
2019-02-08T12:20:13.296Z,79.80
2019-02-08T12:23:16.031Z,80.03
2019-02-08T12:26:18.714Z,79.29
2019-02-08T12:29:21.374Z,79.89
2019-02-08T12:32:23.985Z,80.26
2019-02-08T12:35:26.690Z,79.64
2019-02-08T12:38:29.439Z,79.18
2019-02-08T12:41:34.256Z,78.66
2019-02-08T12:44:36.910Z,78.93
2019-02-08T12:47:39.545Z,79.21
2019-02-08T12:50:42.265Z,78.87
2019-02-08T12:53:45.107Z,79.33
2019-02-08T12:56:47.930Z,78.71
2019-02-08T12:59:50.617Z,79.23
2019-02-08T13:02:53.316Z,80.07
2019-02-08T13:05:55.915Z,79.41
2019-02-08T13:08:58.905Z,79.67
2019-02-08T13:12:01.524Z,79.35
2019-02-08T13:15:05.879Z,79.73
2019-02-08T13:18:08.685Z,80.01
2019-02-08T13:21:11.369Z,79.85
2019-02-08T13:24:14.243Z,80.55
2019-02-08T13:27:16.965Z,81.09
2019-02-08T13:30:22.298Z,81.56
2019-02-08T13:33:25.969Z,81.22
2019-02-08T13:36:28.712Z,81.43
2019-02-08T13:39:31.346Z,80.47
2019-02-08T13:42:34.140Z,80.70
2019-02-08T13:45:36.966Z,81.67
2019-02-08T13:48:39.699Z,82.41
2019-02-08T13:51:42.420Z,81.12
2019-02-08T13:54:45.165Z,81.99
2019-02-08T13:57:47.945Z,82.19
2019-02-08T14:00:50.549Z,82.22
2019-02-08T14:03:53.316Z,81.40
2019-02-08T14:06:57.326Z,81.09
2019-02-08T14:10:00.223Z,80.91
2019-02-08T14:13:03.211Z,81.91
2019-02-08T14:16:06.429Z,80.26
2019-02-08T14:19:09.150Z,81.73
2019-02-08T14:22:11.950Z,80.45
2019-02-08T14:25:14.956Z,82.04
2019-02-08T14:28:17.651Z,80.38
2019-02-08T14:31:20.503Z,81.69
2019-02-08T14:34:23.173Z,81.64
2019-02-08T14:37:25.754Z,82.21
2019-02-08T14:40:28.684Z,83.36
2019-02-08T14:43:31.380Z,83.57
2019-02-08T14:46:33.980Z,83.05
2019-02-08T14:49:38.521Z,82.41
2019-02-08T14:52:41.404Z,83.53
2019-02-08T14:55:44.196Z,83.43
2019-02-08T14:58:46.944Z,83.20
2019-02-08T15:01:49.599Z,83.41
2019-02-08T15:04:52.319Z,82.55
2019-02-08T15:07:55.180Z,82.67
2019-02-08T15:10:57.859Z,82.80
2019-02-08T15:14:00.593Z,83.72
2019-02-08T15:17:03.364Z,83.89
2019-02-08T15:20:09.704Z,83.88
2019-02-08T15:23:12.448Z,83.51
2019-02-08T15:26:15.084Z,82.28
2019-02-08T15:29:17.729Z,82.99
2019-02-08T15:32:20.478Z,82.38
2019-02-08T15:35:24.443Z,82.90
2019-02-08T15:38:27.268Z,82.23
2019-02-08T15:41:29.986Z,81.99
2019-02-08T15:44:32.614Z,82.30
2019-02-08T15:47:35.448Z,82.18
2019-02-08T15:50:38.173Z,81.71
2019-02-08T15:53:40.885Z,81.80
2019-02-08T15:56:43.565Z,82.73
2019-02-08T15:59:46.252Z,82.98
2019-02-08T16:02:49.150Z,82.06
2019-02-08T16:05:51.804Z,82.60
2019-02-08T16:08:54.455Z,83.06
2019-02-08T16:11:57.084Z,82.60
2019-02-08T16:14:59.740Z,82.69
2019-02-08T16:18:02.335Z,82.04
2019-02-08T16:21:05.099Z,81.95
2019-02-08T16:24:07.920Z,82.42
2019-02-08T16:27:10.758Z,81.76
2019-02-08T16:30:18.786Z,82.30
2019-02-08T16:33:21.521Z,82.69
2019-02-08T16:36:24.155Z,82.58
2019-02-08T16:39:26.879Z,82.58
2019-02-08T16:42:29.708Z,82.71
2019-02-08T16:45:33.349Z,82.63
2019-02-08T16:48:35.975Z,82.80
2019-02-08T16:51:38.609Z,82.89
2019-02-08T16:54:41.361Z,82.66
2019-02-08T16:57:47.865Z,82.63
2019-02-08T17:00:49.815Z,82.32
2019-02-08T17:03:52.510Z,82.16
2019-02-08T17:06:55.364Z,81.59
2019-02-08T17:09:58.041Z,81.52
2019-02-08T17:13:00.754Z,82.32
2019-02-08T17:16:05.426Z,82.63
2019-02-08T17:19:08.073Z,82.19
2019-02-08T17:22:10.956Z,82.06
2019-02-08T17:25:13.688Z,81.47
2019-02-08T17:28:16.305Z,81.75
2019-02-08T17:31:19.008Z,80.77
2019-02-08T17:34:22.626Z,80.91
2019-02-08T17:37:25.264Z,80.59
2019-02-08T17:40:29.989Z,80.93
2019-02-08T17:43:33.998Z,80.83
2019-02-08T17:46:36.604Z,80.47
2019-02-08T17:49:39.563Z,81.02
2019-02-08T17:52:42.353Z,81.35
2019-02-08T17:55:45.105Z,80.72
2019-02-08T17:58:47.914Z,80.49
2019-02-08T18:01:50.660Z,80.57
2019-02-08T18:04:53.245Z,80.84
2019-02-08T18:07:55.959Z,79.40
2019-02-08T18:10:58.581Z,79.54
2019-02-08T18:14:01.243Z,79.78
2019-02-08T18:17:03.978Z,78.91
2019-02-08T18:20:11.431Z,79.35
2019-02-08T18:23:14.063Z,80.45
2019-02-08T18:26:16.709Z,80.66
2019-02-08T18:29:19.411Z,80.07
2019-02-08T18:32:22.150Z,80.03
2019-02-08T18:35:24.912Z,79.11
2019-02-08T18:38:27.659Z,80.45
2019-02-08T18:41:30.408Z,79.89
2019-02-08T18:44:32.979Z,79.89
2019-02-08T18:47:35.727Z,79.86
2019-02-08T18:50:43.978Z,79.60
2019-02-08T18:53:46.678Z,79.70
2019-02-08T18:56:49.446Z,79.19
2019-02-08T18:59:52.098Z,79.47
2019-02-08T19:02:54.908Z,79.91
2019-02-08T19:05:57.537Z,80.07
2019-02-08T19:09:00.283Z,79.66
2019-02-08T19:12:02.917Z,79.67
2019-02-08T19:15:06.679Z,79.56
2019-02-08T19:18:10.309Z,79.71
2019-02-08T19:21:12.979Z,78.74
2019-02-08T19:24:15.746Z,78.99
2019-02-08T19:27:18.373Z,79.19
2019-02-08T19:30:23.786Z,79.54
2019-02-08T19:33:26.577Z,79.03
2019-02-08T19:36:29.283Z,78.80
2019-02-08T19:39:33.988Z,78.87
2019-02-08T19:42:36.632Z,79.12
2019-02-08T19:45:39.243Z,79.51
2019-02-08T19:48:41.935Z,78.84
2019-02-08T19:51:45.459Z,78.62
2019-02-08T19:54:48.414Z,78.63
2019-02-08T19:57:51.027Z,78.15
2019-02-08T20:00:55.776Z,78.58
2019-02-08T20:03:58.305Z,78.43
2019-02-08T20:07:01.042Z,78.64
2019-02-08T20:10:06.746Z,78.12
2019-02-08T20:13:09.485Z,78.56
2019-02-08T20:16:13.206Z,79.00
2019-02-08T20:19:15.779Z,78.49
2019-02-08T20:22:18.448Z,77.99
2019-02-08T20:25:23.972Z,77.93
2019-02-08T20:28:26.603Z,77.64
2019-02-08T20:31:29.263Z,78.15
2019-02-08T20:34:31.898Z,79.06
2019-02-08T20:37:34.657Z,78.37
2019-02-08T20:40:39.545Z,78.60
2019-02-08T20:43:42.198Z,78.17
2019-02-08T20:46:44.775Z,78.74
2019-02-08T20:49:47.494Z,77.97
2019-02-08T20:52:51.592Z,78.70
2019-02-08T20:55:54.651Z,78.71
2019-02-08T20:58:57.205Z,78.78
2019-02-08T21:01:59.903Z,79.24
2019-02-08T21:05:02.954Z,79.00
2019-02-08T21:08:06.567Z,78.18
2019-02-08T21:11:10.084Z,78.87
2019-02-08T21:14:12.755Z,79.07
2019-02-08T21:17:15.419Z,78.37
2019-02-08T21:20:18.301Z,78.71
2019-02-08T21:23:21.102Z,78.49
2019-02-08T21:26:23.853Z,78.48
2019-02-08T21:29:26.468Z,78.26
2019-02-08T21:32:29.153Z,78.57
2019-02-08T21:35:32.763Z,78.22
2019-02-08T21:38:35.653Z,78.65
2019-02-08T21:41:38.369Z,78.13
2019-02-08T21:44:41.097Z,77.39
2019-02-08T21:47:43.734Z,78.10
2019-02-08T21:50:48.593Z,78.33
2019-02-08T21:53:52.328Z,78.29
2019-02-08T21:56:55.018Z,78.52
2019-02-08T21:59:57.720Z,77.92
2019-02-08T22:03:01.560Z,78.29
2019-02-08T22:06:08.319Z,78.48
2019-02-08T22:09:10.995Z,77.40
2019-02-08T22:12:14.635Z,77.81
2019-02-08T22:15:20.155Z,77.63
2019-02-08T22:18:22.878Z,78.12
2019-02-08T22:21:26.757Z,77.12
2019-02-08T22:24:29.469Z,76.56
2019-02-08T22:27:32.508Z,77.35
2019-02-08T22:30:37.453Z,76.78
2019-02-08T22:33:40.153Z,77.39
2019-02-08T22:36:42.767Z,76.97
2019-02-08T22:39:45.656Z,77.11
2019-02-08T22:42:48.543Z,77.72
2019-02-08T22:45:51.399Z,77.44
2019-02-08T22:48:54.588Z,77.39
2019-02-08T22:51:57.295Z,77.97
2019-02-08T22:54:59.949Z,77.60
2019-02-08T22:58:03.166Z,77.21
2019-02-08T23:01:28.797Z,76.53
2019-02-08T23:04:31.402Z,76.41
2019-02-08T23:07:34.165Z,76.49
2019-02-08T23:10:37.502Z,77.00
2019-02-08T23:13:41.153Z,76.79
2019-02-08T23:16:43.791Z,76.08
2019-02-08T23:19:47.534Z,76.04
2019-02-08T23:22:50.178Z,76.52
2019-02-08T23:25:52.834Z,77.02
2019-02-08T23:28:55.602Z,76.01
2019-02-08T23:31:58.252Z,77.12
2019-02-08T23:35:01.047Z,76.35
2019-02-08T23:38:03.873Z,76.15
2019-02-08T23:41:06.579Z,75.43
2019-02-08T23:44:10.105Z,75.93
2019-02-08T23:47:12.862Z,76.19
2019-02-08T23:50:15.777Z,75.67
2019-02-08T23:53:18.565Z,76.78
2019-02-08T23:56:22.499Z,77.03
2019-02-08T23:59:25.352Z,78.32
